TimeEDT,TemperatureF,Dew PointF,Humidity,Sea Level PressureIn,VisibilityMPH,Wind Direction,Wind SpeedMPH,Gust SpeedMPH,PrecipitationIn,Events,Conditions,WindDirDegrees,DateUTC
12:54 AM,42.1,19.9,41,30.32,10.0,NE,6.9,-,N/A,,Clear,40,2014-04-21 04:54:00
1:54 AM,42.1,23.0,47,30.29,10.0,Calm,Calm,-,N/A,,Clear,0,2014-04-21 05:54:00
2:54 AM,42.1,21.9,45,30.26,10.0,NNE,5.8,-,N/A,,Clear,30,2014-04-21 06:54:00
3:54 AM,41.0,23.0,49,30.25,10.0,NE,5.8,-,N/A,,Clear,50,2014-04-21 07:54:00
4:54 AM,39.9,25.0,55,30.25,10.0,NE,5.8,-,N/A,,Partly Cloudy,40,2014-04-21 08:54:00
5:54 AM,39.9,26.1,58,30.24,10.0,NE,6.9,-,N/A,,Partly Cloudy,40,2014-04-21 09:54:00
6:54 AM,42.1,26.1,53,30.23,10.0,Variable,5.8,-,N/A,,Partly Cloudy,0,2014-04-21 10:54:00
7:54 AM,46.0,28.9,51,30.23,10.0,ENE,5.8,-,N/A,,Scattered Clouds,60,2014-04-21 11:54:00
8:54 AM,48.9,30.0,48,30.22,10.0,ENE,4.6,-,N/A,,Scattered Clouds,60,2014-04-21 12:54:00
9:54 AM,52.0,30.0,43,30.19,10.0,ESE,5.8,-,N/A,,Scattered Clouds,120,2014-04-21 13:54:00
10:54 AM,55.9,30.9,39,30.18,10.0,Calm,Calm,-,N/A,,Scattered Clouds,0,2014-04-21 14:54:00
11:54 AM,62.1,30.9,31,30.15,10.0,Calm,Calm,-,N/A,,Scattered Clouds,0,2014-04-21 15:54:00
12:54 PM,62.1,32.0,32,30.11,10.0,Calm,Calm,-,N/A,,Partly Cloudy,0,2014-04-21 16:54:00
1:54 PM,66.0,32.0,28,30.08,10.0,Variable,5.8,-,N/A,,Partly Cloudy,0,2014-04-21 17:54:00
2:54 PM,66.0,30.9,27,30.04,10.0,Variable,3.5,-,N/A,,Partly Cloudy,0,2014-04-21 18:54:00
3:54 PM,68.0,32.0,26,30.00,10.0,South,6.9,-,N/A,,Scattered Clouds,190,2014-04-21 19:54:00
4:54 PM,69.1,30.9,24,29.98,10.0,WSW,10.4,-,N/A,,Scattered Clouds,250,2014-04-21 20:54:00
5:54 PM,66.9,30.9,26,29.96,10.0,West,12.7,-,N/A,,Scattered Clouds,260,2014-04-21 21:54:00
6:54 PM,66.9,35.1,31,29.94,10.0,SSW,11.5,-,N/A,,Scattered Clouds,210,2014-04-21 22:54:00
7:54 PM,63.0,39.0,41,29.94,10.0,SW,9.2,-,N/A,,Scattered Clouds,230,2014-04-21 23:54:00
8:54 PM,60.1,43.0,53,29.94,10.0,SSW,5.8,-,N/A,,Scattered Clouds,200,2014-04-22 00:54:00
9:54 PM,57.0,43.0,59,29.94,10.0,SSW,9.2,-,N/A,,Scattered Clouds,200,2014-04-22 01:54:00
10:54 PM,55.0,43.0,64,29.92,10.0,SSW,9.2,-,N/A,,Scattered Clouds,210,2014-04-22 02:54:00
11:54 PM,53.1,44.1,71,29.91,10.0,SSW,9.2,-,N/A,,Partly Cloudy,200,2014-04-22 03:54:00